sensor_id;sensor_type;location;lat;lon;timestamp;temperature;humidity
23188;DHT22;11762;59.878;17.686;2022-12-20T00:01:07;1.50;99.90
23188;DHT22;11762;59.878;17.686;2022-12-20T00:03:34;1.50;99.90
23188;DHT22;11762;59.878;17.686;2022-12-20T00:06:01;1.50;99.90
23188;DHT22;11762;59.878;17.686;2022-12-20T00:08:28;1.50;99.90
23188;DHT22;11762;59.878;17.686;2022-12-20T00:10:55;1.50;99.90
23188;DHT22;11762;59.878;17.686;2022-12-20T00:13:23;1.60;99.90
23188;DHT22;11762;59.878;17.686;2022-12-20T00:16:02;1.60;99.90
23188;DHT22;11762;59.878;17.686;2022-12-20T00:18:30;1.60;99.90
23188;DHT22;11762;59.878;17.686;2022-12-20T00:20:57;1.60;99.90
23188;DHT22;11762;59.878;17.686;2022-12-20T00:23:24;1.60;99.90
23188;DHT22;11762;59.878;17.686;2022-12-20T00:25:51;1.60;99.90
23188;DHT22;11762;59.878;17.686;2022-12-20T00:28:19;1.60;99.90
23188;DHT22;11762;59.878;17.686;2022-12-20T00:30:52;1.60;99.90
23188;DHT22;11762;59.878;17.686;2022-12-20T00:33:19;1.60;99.90
23188;DHT22;11762;59.878;17.686;2022-12-20T00:35:46;1.60;99.90
23188;DHT22;11762;59.878;17.686;2022-12-20T00:38:13;1.60;99.90
23188;DHT22;11762;59.878;17.686;2022-12-20T00:40:40;1.60;99.90
23188;DHT22;11762;59.878;17.686;2022-12-20T00:43:08;1.60;99.90
23188;DHT22;11762;59.878;17.686;2022-12-20T00:45:35;1.60;99.90
23188;DHT22;11762;59.878;17.686;2022-12-20T00:48:04;1.60;99.90
23188;DHT22;11762;59.878;17.686;2022-12-20T00:50:31;1.60;99.90
23188;DHT22;11762;59.878;17.686;2022-12-20T00:52:58;1.60;99.90
23188;DHT22;11762;59.878;17.686;2022-12-20T00:55:25;1.60;99.90
23188;DHT22;11762;59.878;17.686;2022-12-20T00:57:52;1.60;99.90
23188;DHT22;11762;59.878;17.686;2022-12-20T01:00:20;1.60;99.90
23188;DHT22;11762;59.878;17.686;2022-12-20T01:02:47;1.60;99.90
23188;DHT22;11762;59.878;17.686;2022-12-20T01:05:16;1.60;99.90
23188;DHT22;11762;59.878;17.686;2022-12-20T01:07:43;1.70;99.90
23188;DHT22;11762;59.878;17.686;2022-12-20T01:10:10;1.60;99.90
23188;DHT22;11762;59.878;17.686;2022-12-20T01:12:37;1.60;99.90
23188;DHT22;11762;59.878;17.686;2022-12-20T01:15:05;1.60;99.90
23188;DHT22;11762;59.878;17.686;2022-12-20T01:17:33;1.60;99.90
23188;DHT22;11762;59.878;17.686;2022-12-20T01:20:00;1.60;99.90
23188;DHT22;11762;59.878;17.686;2022-12-20T01:22:28;1.60;99.90
23188;DHT22;11762;59.878;17.686;2022-12-20T01:24:55;1.60;99.90
23188;DHT22;11762;59.878;17.686;2022-12-20T01:27:22;1.60;99.90
23188;DHT22;11762;59.878;17.686;2022-12-20T01:29:50;1.60;99.90
23188;DHT22;11762;59.878;17.686;2022-12-20T01:32:17;1.50;99.90
23188;DHT22;11762;59.878;17.686;2022-12-20T01:34:44;1.50;99.90
23188;DHT22;11762;59.878;17.686;2022-12-20T01:37:11;1.50;99.90
23188;DHT22;11762;59.878;17.686;2022-12-20T01:39:39;1.50;99.90
23188;DHT22;11762;59.878;17.686;2022-12-20T01:42:11;1.50;99.90
23188;DHT22;11762;59.878;17.686;2022-12-20T01:45:04;1.50;99.90
23188;DHT22;11762;59.878;17.686;2022-12-20T01:47:34;1.50;99.90
23188;DHT22;11762;59.878;17.686;2022-12-20T01:50:04;1.50;99.90
23188;DHT22;11762;59.878;17.686;2022-12-20T01:52:34;1.50;99.90
23188;DHT22;11762;59.878;17.686;2022-12-20T01:55:07;1.50;99.90
23188;DHT22;11762;59.878;17.686;2022-12-20T01:57:39;1.50;99.90
23188;DHT22;11762;59.878;17.686;2022-12-20T02:00:09;1.50;99.90
23188;DHT22;11762;59.878;17.686;2022-12-20T02:02:36;1.50;99.90
23188;DHT22;11762;59.878;17.686;2022-12-20T02:05:04;1.50;99.90
23188;DHT22;11762;59.878;17.686;2022-12-20T02:07:33;1.50;99.90
23188;DHT22;11762;59.878;17.686;2022-12-20T02:10:03;1.50;99.90
23188;DHT22;11762;59.878;17.686;2022-12-20T02:12:37;1.50;99.90
23188;DHT22;11762;59.878;17.686;2022-12-20T02:18:08;1.60;99.90
23188;DHT22;11762;59.878;17.686;2022-12-20T02:20:52;1.60;99.90
23188;DHT22;11762;59.878;17.686;2022-12-20T02:23:55;1.60;99.90
23188;DHT22;11762;59.878;17.686;2022-12-20T02:26:49;1.60;99.90
23188;DHT22;11762;59.878;17.686;2022-12-20T02:29:25;1.50;99.90
23188;DHT22;11762;59.878;17.686;2022-12-20T02:32:01;1.50;99.90
23188;DHT22;11762;59.878;17.686;2022-12-20T02:34:32;1.50;99.90
23188;DHT22;11762;59.878;17.686;2022-12-20T02:37:01;1.50;99.90
23188;DHT22;11762;59.878;17.686;2022-12-20T02:39:30;1.50;99.90
23188;DHT22;11762;59.878;17.686;2022-12-20T02:42:01;1.50;99.90
23188;DHT22;11762;59.878;17.686;2022-12-20T02:44:32;1.50;99.90
23188;DHT22;11762;59.878;17.686;2022-12-20T02:47:21;1.50;99.90
23188;DHT22;11762;59.878;17.686;2022-12-20T02:49:50;1.50;99.90
23188;DHT22;11762;59.878;17.686;2022-12-20T02:52:20;1.50;99.90
23188;DHT22;11762;59.878;17.686;2022-12-20T02:54:48;1.50;99.90
23188;DHT22;11762;59.878;17.686;2022-12-20T02:57:18;1.60;99.90
23188;DHT22;11762;59.878;17.686;2022-12-20T02:59:52;1.60;99.90
23188;DHT22;11762;59.878;17.686;2022-12-20T03:02:23;1.60;99.90
23188;DHT22;11762;59.878;17.686;2022-12-20T03:04:51;1.60;99.90
23188;DHT22;11762;59.878;17.686;2022-12-20T03:07:20;1.60;99.90
23188;DHT22;11762;59.878;17.686;2022-12-20T03:09:47;1.60;99.90
23188;DHT22;11762;59.878;17.686;2022-12-20T03:12:14;1.60;99.90
23188;DHT22;11762;59.878;17.686;2022-12-20T03:14:42;1.60;99.90
23188;DHT22;11762;59.878;17.686;2022-12-20T03:17:09;1.50;99.90
23188;DHT22;11762;59.878;17.686;2022-12-20T03:19:37;1.50;99.90
23188;DHT22;11762;59.878;17.686;2022-12-20T03:22:04;1.60;99.90
23188;DHT22;11762;59.878;17.686;2022-12-20T03:24:31;1.50;99.90
23188;DHT22;11762;59.878;17.686;2022-12-20T03:26:58;1.50;99.90
23188;DHT22;11762;59.878;17.686;2022-12-20T03:29:25;1.60;99.90
23188;DHT22;11762;59.878;17.686;2022-12-20T03:31:52;1.60;99.90
23188;DHT22;11762;59.878;17.686;2022-12-20T03:34:20;1.60;99.90
23188;DHT22;11762;59.878;17.686;2022-12-20T03:36:48;1.60;99.90
23188;DHT22;11762;59.878;17.686;2022-12-20T03:39:15;1.50;99.90
23188;DHT22;11762;59.878;17.686;2022-12-20T03:41:42;1.60;99.90
23188;DHT22;11762;59.878;17.686;2022-12-20T03:44:09;1.60;99.90
23188;DHT22;11762;59.878;17.686;2022-12-20T03:46:36;1.60;99.90
23188;DHT22;11762;59.878;17.686;2022-12-20T03:49:04;1.60;99.90
23188;DHT22;11762;59.878;17.686;2022-12-20T03:51:31;1.50;99.90
23188;DHT22;11762;59.878;17.686;2022-12-20T03:53:59;1.50;99.90
23188;DHT22;11762;59.878;17.686;2022-12-20T03:56:26;1.60;99.90
23188;DHT22;11762;59.878;17.686;2022-12-20T03:58:53;1.50;99.90
23188;DHT22;11762;59.878;17.686;2022-12-20T04:01:22;1.50;99.90
23188;DHT22;11762;59.878;17.686;2022-12-20T04:03:50;1.50;99.90
23188;DHT22;11762;59.878;17.686;2022-12-20T04:06:18;1.50;99.90
23188;DHT22;11762;59.878;17.686;2022-12-20T04:08:46;1.50;99.90
23188;DHT22;11762;59.878;17.686;2022-12-20T04:11:14;1.50;99.90
23188;DHT22;11762;59.878;17.686;2022-12-20T04:13:42;1.50;99.90
23188;DHT22;11762;59.878;17.686;2022-12-20T04:16:09;1.50;99.90
23188;DHT22;11762;59.878;17.686;2022-12-20T04:18:36;1.50;99.90
23188;DHT22;11762;59.878;17.686;2022-12-20T04:21:04;1.40;99.90
23188;DHT22;11762;59.878;17.686;2022-12-20T04:23:32;1.40;99.90
23188;DHT22;11762;59.878;17.686;2022-12-20T04:25:59;1.40;99.90
23188;DHT22;11762;59.878;17.686;2022-12-20T04:28:28;1.50;99.90
23188;DHT22;11762;59.878;17.686;2022-12-20T04:30:56;1.40;99.90
23188;DHT22;11762;59.878;17.686;2022-12-20T04:33:24;1.40;99.90
23188;DHT22;11762;59.878;17.686;2022-12-20T04:35:51;1.40;99.90
23188;DHT22;11762;59.878;17.686;2022-12-20T04:38:19;1.40;99.90
23188;DHT22;11762;59.878;17.686;2022-12-20T04:40:48;1.40;99.90
23188;DHT22;11762;59.878;17.686;2022-12-20T04:43:15;1.40;99.90
23188;DHT22;11762;59.878;17.686;2022-12-20T04:45:45;1.40;99.90
23188;DHT22;11762;59.878;17.686;2022-12-20T04:48:13;1.40;99.90
23188;DHT22;11762;59.878;17.686;2022-12-20T04:50:40;1.40;99.90
23188;DHT22;11762;59.878;17.686;2022-12-20T04:53:08;1.40;99.90
23188;DHT22;11762;59.878;17.686;2022-12-20T04:55:54;1.40;99.90
23188;DHT22;11762;59.878;17.686;2022-12-20T04:58:21;1.40;99.90
23188;DHT22;11762;59.878;17.686;2022-12-20T05:00:49;1.40;99.90
23188;DHT22;11762;59.878;17.686;2022-12-20T05:03:18;1.40;99.90
23188;DHT22;11762;59.878;17.686;2022-12-20T05:05:46;1.40;99.90
23188;DHT22;11762;59.878;17.686;2022-12-20T05:08:13;1.40;99.90
23188;DHT22;11762;59.878;17.686;2022-12-20T05:10:40;1.30;99.90
23188;DHT22;11762;59.878;17.686;2022-12-20T05:13:07;1.40;99.90
23188;DHT22;11762;59.878;17.686;2022-12-20T05:15:35;1.40;99.90
23188;DHT22;11762;59.878;17.686;2022-12-20T05:18:04;1.40;99.90
23188;DHT22;11762;59.878;17.686;2022-12-20T05:20:31;1.40;99.90
23188;DHT22;11762;59.878;17.686;2022-12-20T05:22:58;1.40;99.90
23188;DHT22;11762;59.878;17.686;2022-12-20T05:25:44;1.40;99.90
23188;DHT22;11762;59.878;17.686;2022-12-20T05:28:29;1.50;99.90
23188;DHT22;11762;59.878;17.686;2022-12-20T05:30:56;1.40;99.90
23188;DHT22;11762;59.878;17.686;2022-12-20T05:33:25;1.50;99.90
23188;DHT22;11762;59.878;17.686;2022-12-20T05:35:53;1.40;99.90
23188;DHT22;11762;59.878;17.686;2022-12-20T05:38:20;1.50;99.90
23188;DHT22;11762;59.878;17.686;2022-12-20T05:40:48;1.40;99.90
23188;DHT22;11762;59.878;17.686;2022-12-20T05:43:16;1.40;99.90
23188;DHT22;11762;59.878;17.686;2022-12-20T05:45:45;1.40;99.90
23188;DHT22;11762;59.878;17.686;2022-12-20T05:48:13;1.40;99.90
23188;DHT22;11762;59.878;17.686;2022-12-20T05:50:41;1.40;99.90
23188;DHT22;11762;59.878;17.686;2022-12-20T05:53:11;1.40;99.90
23188;DHT22;11762;59.878;17.686;2022-12-20T05:55:42;1.40;99.90
23188;DHT22;11762;59.878;17.686;2022-12-20T05:58:09;1.30;99.90
23188;DHT22;11762;59.878;17.686;2022-12-20T06:00:38;1.30;99.90
23188;DHT22;11762;59.878;17.686;2022-12-20T06:03:06;1.30;99.90
23188;DHT22;11762;59.878;17.686;2022-12-20T06:05:34;1.40;99.90
23188;DHT22;11762;59.878;17.686;2022-12-20T06:08:03;1.40;99.90
23188;DHT22;11762;59.878;17.686;2022-12-20T06:10:30;1.30;99.90
23188;DHT22;11762;59.878;17.686;2022-12-20T06:12:57;1.30;99.90
23188;DHT22;11762;59.878;17.686;2022-12-20T06:15:24;1.30;99.90
23188;DHT22;11762;59.878;17.686;2022-12-20T06:17:51;1.30;99.90
23188;DHT22;11762;59.878;17.686;2022-12-20T06:20:18;1.30;99.90
23188;DHT22;11762;59.878;17.686;2022-12-20T06:22:46;1.40;99.90
23188;DHT22;11762;59.878;17.686;2022-12-20T06:25:14;1.40;99.90
23188;DHT22;11762;59.878;17.686;2022-12-20T06:27:41;1.40;99.90
23188;DHT22;11762;59.878;17.686;2022-12-20T06:30:09;1.40;99.90
23188;DHT22;11762;59.878;17.686;2022-12-20T06:32:36;1.40;99.90
23188;DHT22;11762;59.878;17.686;2022-12-20T06:35:04;1.40;99.90
23188;DHT22;11762;59.878;17.686;2022-12-20T06:37:32;1.40;99.90
23188;DHT22;11762;59.878;17.686;2022-12-20T06:39:59;1.40;99.90
23188;DHT22;11762;59.878;17.686;2022-12-20T06:42:27;1.40;99.90
23188;DHT22;11762;59.878;17.686;2022-12-20T06:44:54;1.40;99.90
23188;DHT22;11762;59.878;17.686;2022-12-20T06:47:21;1.40;99.90
23188;DHT22;11762;59.878;17.686;2022-12-20T06:49:48;1.40;99.90
23188;DHT22;11762;59.878;17.686;2022-12-20T06:52:15;1.40;99.90
23188;DHT22;11762;59.878;17.686;2022-12-20T06:54:42;1.30;99.90
23188;DHT22;11762;59.878;17.686;2022-12-20T06:57:09;1.30;99.90
23188;DHT22;11762;59.878;17.686;2022-12-20T06:59:38;1.30;99.90
23188;DHT22;11762;59.878;17.686;2022-12-20T07:02:05;1.30;99.90
23188;DHT22;11762;59.878;17.686;2022-12-20T07:04:32;1.30;99.90
23188;DHT22;11762;59.878;17.686;2022-12-20T07:06:59;1.40;99.90
23188;DHT22;11762;59.878;17.686;2022-12-20T07:09:26;1.40;99.90
23188;DHT22;11762;59.878;17.686;2022-12-20T07:11:53;1.40;99.90
23188;DHT22;11762;59.878;17.686;2022-12-20T07:14:20;1.30;99.90
23188;DHT22;11762;59.878;17.686;2022-12-20T07:16:49;1.30;99.90
23188;DHT22;11762;59.878;17.686;2022-12-20T07:19:16;1.30;99.90
23188;DHT22;11762;59.878;17.686;2022-12-20T07:21:43;1.30;99.90
23188;DHT22;11762;59.878;17.686;2022-12-20T07:24:10;1.30;99.90
23188;DHT22;11762;59.878;17.686;2022-12-20T07:26:37;1.30;99.90
23188;DHT22;11762;59.878;17.686;2022-12-20T07:29:04;1.30;99.90
23188;DHT22;11762;59.878;17.686;2022-12-20T07:31:31;1.30;99.90
23188;DHT22;11762;59.878;17.686;2022-12-20T07:34:00;1.30;99.90
23188;DHT22;11762;59.878;17.686;2022-12-20T07:36:27;1.40;99.90
23188;DHT22;11762;59.878;17.686;2022-12-20T07:38:54;1.40;99.90
23188;DHT22;11762;59.878;17.686;2022-12-20T07:41:21;1.40;99.90
23188;DHT22;11762;59.878;17.686;2022-12-20T07:43:49;1.40;99.90
23188;DHT22;11762;59.878;17.686;2022-12-20T07:46:17;1.50;99.90
23188;DHT22;11762;59.878;17.686;2022-12-20T07:48:44;1.40;99.90
23188;DHT22;11762;59.878;17.686;2022-12-20T07:51:15;1.40;99.90
23188;DHT22;11762;59.878;17.686;2022-12-20T07:53:47;1.50;99.90
23188;DHT22;11762;59.878;17.686;2022-12-20T07:56:14;1.50;99.90
23188;DHT22;11762;59.878;17.686;2022-12-20T07:58:42;1.50;99.90
23188;DHT22;11762;59.878;17.686;2022-12-20T08:01:10;1.50;99.90
23188;DHT22;11762;59.878;17.686;2022-12-20T08:03:41;1.50;99.90
23188;DHT22;11762;59.878;17.686;2022-12-20T08:06:09;1.60;99.90
23188;DHT22;11762;59.878;17.686;2022-12-20T08:08:41;1.50;99.90
23188;DHT22;11762;59.878;17.686;2022-12-20T08:11:10;1.50;99.90
23188;DHT22;11762;59.878;17.686;2022-12-20T08:13:38;1.50;99.90
23188;DHT22;11762;59.878;17.686;2022-12-20T08:16:06;1.50;99.90
23188;DHT22;11762;59.878;17.686;2022-12-20T08:18:33;1.50;99.90
23188;DHT22;11762;59.878;17.686;2022-12-20T08:21:00;1.60;99.90
23188;DHT22;11762;59.878;17.686;2022-12-20T08:23:27;1.60;99.90
23188;DHT22;11762;59.878;17.686;2022-12-20T08:25:56;1.60;99.90
23188;DHT22;11762;59.878;17.686;2022-12-20T08:28:25;1.60;99.90
23188;DHT22;11762;59.878;17.686;2022-12-20T08:30:52;1.60;99.90
23188;DHT22;11762;59.878;17.686;2022-12-20T08:33:25;1.60;99.90
23188;DHT22;11762;59.878;17.686;2022-12-20T08:35:56;1.60;99.90
23188;DHT22;11762;59.878;17.686;2022-12-20T08:38:25;1.60;99.90
23188;DHT22;11762;59.878;17.686;2022-12-20T08:40:52;1.60;99.90
23188;DHT22;11762;59.878;17.686;2022-12-20T08:43:21;1.70;99.90
23188;DHT22;11762;59.878;17.686;2022-12-20T08:45:52;1.70;99.90
23188;DHT22;11762;59.878;17.686;2022-12-20T08:48:20;1.70;99.90
23188;DHT22;11762;59.878;17.686;2022-12-20T08:50:47;1.70;99.90
23188;DHT22;11762;59.878;17.686;2022-12-20T08:53:19;1.70;99.90
23188;DHT22;11762;59.878;17.686;2022-12-20T08:55:46;1.60;99.90
23188;DHT22;11762;59.878;17.686;2022-12-20T08:58:13;1.60;99.90
23188;DHT22;11762;59.878;17.686;2022-12-20T09:00:42;1.60;99.90
23188;DHT22;11762;59.878;17.686;2022-12-20T09:03:10;1.60;99.90
23188;DHT22;11762;59.878;17.686;2022-12-20T09:05:43;1.60;99.90
23188;DHT22;11762;59.878;17.686;2022-12-20T09:08:10;1.60;99.90
23188;DHT22;11762;59.878;17.686;2022-12-20T09:10:37;1.60;99.90
23188;DHT22;11762;59.878;17.686;2022-12-20T09:13:05;1.60;99.90
23188;DHT22;11762;59.878;17.686;2022-12-20T09:15:33;1.60;99.90
23188;DHT22;11762;59.878;17.686;2022-12-20T09:18:01;1.60;99.90
23188;DHT22;11762;59.878;17.686;2022-12-20T09:20:28;1.70;99.90
23188;DHT22;11762;59.878;17.686;2022-12-20T09:22:57;1.70;99.90
23188;DHT22;11762;59.878;17.686;2022-12-20T09:25:24;1.70;99.90
23188;DHT22;11762;59.878;17.686;2022-12-20T09:27:52;1.70;99.90
23188;DHT22;11762;59.878;17.686;2022-12-20T09:30:19;1.70;99.90
23188;DHT22;11762;59.878;17.686;2022-12-20T09:32:46;1.80;99.90
23188;DHT22;11762;59.878;17.686;2022-12-20T09:35:15;1.80;99.90
23188;DHT22;11762;59.878;17.686;2022-12-20T09:37:42;1.80;99.90
23188;DHT22;11762;59.878;17.686;2022-12-20T09:40:15;1.80;99.90
23188;DHT22;11762;59.878;17.686;2022-12-20T09:42:42;1.90;99.90
23188;DHT22;11762;59.878;17.686;2022-12-20T09:45:17;1.90;99.90
23188;DHT22;11762;59.878;17.686;2022-12-20T09:47:46;1.90;99.90
23188;DHT22;11762;59.878;17.686;2022-12-20T09:50:16;1.90;99.90
23188;DHT22;11762;59.878;17.686;2022-12-20T09:52:58;2.00;99.90
23188;DHT22;11762;59.878;17.686;2022-12-20T09:55:34;2.00;99.90
23188;DHT22;11762;59.878;17.686;2022-12-20T09:58:17;2.00;99.90
23188;DHT22;11762;59.878;17.686;2022-12-20T10:00:48;2.00;99.90
23188;DHT22;11762;59.878;17.686;2022-12-20T10:03:19;2.00;99.90
23188;DHT22;11762;59.878;17.686;2022-12-20T10:05:51;1.90;99.90
23188;DHT22;11762;59.878;17.686;2022-12-20T10:08:27;1.90;99.90
23188;DHT22;11762;59.878;17.686;2022-12-20T10:11:02;1.90;99.90
23188;DHT22;11762;59.878;17.686;2022-12-20T10:13:54;1.90;99.90
23188;DHT22;11762;59.878;17.686;2022-12-20T10:16:35;1.90;99.90
23188;DHT22;11762;59.878;17.686;2022-12-20T10:19:23;1.90;99.90
23188;DHT22;11762;59.878;17.686;2022-12-20T10:22:04;1.90;99.90
23188;DHT22;11762;59.878;17.686;2022-12-20T10:24:35;1.90;99.90
23188;DHT22;11762;59.878;17.686;2022-12-20T10:27:11;2.00;99.90
23188;DHT22;11762;59.878;17.686;2022-12-20T10:29:41;2.00;99.90
23188;DHT22;11762;59.878;17.686;2022-12-20T10:32:14;2.00;99.90
23188;DHT22;11762;59.878;17.686;2022-12-20T10:34:49;2.00;99.90
23188;DHT22;11762;59.878;17.686;2022-12-20T10:37:19;2.00;99.90
23188;DHT22;11762;59.878;17.686;2022-12-20T10:39:47;2.00;99.90
23188;DHT22;11762;59.878;17.686;2022-12-20T10:42:34;2.10;99.90
23188;DHT22;11762;59.878;17.686;2022-12-20T10:45:03;2.10;99.90
23188;DHT22;11762;59.878;17.686;2022-12-20T10:47:37;2.10;99.90
23188;DHT22;11762;59.878;17.686;2022-12-20T10:50:12;2.10;99.90
23188;DHT22;11762;59.878;17.686;2022-12-20T10:52:42;2.10;99.90
23188;DHT22;11762;59.878;17.686;2022-12-20T10:55:40;2.10;99.90
23188;DHT22;11762;59.878;17.686;2022-12-20T10:58:13;2.20;99.90
23188;DHT22;11762;59.878;17.686;2022-12-20T11:00:41;2.10;99.90
23188;DHT22;11762;59.878;17.686;2022-12-20T11:03:14;2.20;99.90
23188;DHT22;11762;59.878;17.686;2022-12-20T11:05:53;2.20;99.90
23188;DHT22;11762;59.878;17.686;2022-12-20T11:08:22;2.20;99.90
23188;DHT22;11762;59.878;17.686;2022-12-20T11:11:09;2.20;99.90
23188;DHT22;11762;59.878;17.686;2022-12-20T11:13:37;2.20;99.90
23188;DHT22;11762;59.878;17.686;2022-12-20T11:16:08;2.30;99.90
23188;DHT22;11762;59.878;17.686;2022-12-20T11:18:51;2.30;99.90
23188;DHT22;11762;59.878;17.686;2022-12-20T11:21:26;2.30;99.90
23188;DHT22;11762;59.878;17.686;2022-12-20T11:24:02;2.40;99.90
23188;DHT22;11762;59.878;17.686;2022-12-20T11:26:44;2.40;99.90
23188;DHT22;11762;59.878;17.686;2022-12-20T11:29:29;2.40;99.90
23188;DHT22;11762;59.878;17.686;2022-12-20T11:32:04;2.50;99.90
23188;DHT22;11762;59.878;17.686;2022-12-20T11:34:40;2.50;99.90
23188;DHT22;11762;59.878;17.686;2022-12-20T11:37:17;2.50;99.90
23188;DHT22;11762;59.878;17.686;2022-12-20T11:40:05;2.60;99.90
23188;DHT22;11762;59.878;17.686;2022-12-20T11:42:49;2.60;99.90
23188;DHT22;11762;59.878;17.686;2022-12-20T11:45:23;2.60;99.90
23188;DHT22;11762;59.878;17.686;2022-12-20T11:51:01;2.60;99.90
23188;DHT22;11762;59.878;17.686;2022-12-20T11:53:35;2.60;99.90
23188;DHT22;11762;59.878;17.686;2022-12-20T11:56:09;2.60;99.90
23188;DHT22;11762;59.878;17.686;2022-12-20T11:58:46;2.70;99.90
23188;DHT22;11762;59.878;17.686;2022-12-20T12:01:17;2.70;99.90
23188;DHT22;11762;59.878;17.686;2022-12-20T12:03:53;2.80;99.90
23188;DHT22;11762;59.878;17.686;2022-12-20T12:06:26;2.70;99.90
23188;DHT22;11762;59.878;17.686;2022-12-20T12:09:03;2.80;99.90
23188;DHT22;11762;59.878;17.686;2022-12-20T12:11:35;2.80;99.90
23188;DHT22;11762;59.878;17.686;2022-12-20T12:14:05;2.80;99.90
23188;DHT22;11762;59.878;17.686;2022-12-20T12:16:35;2.80;99.90
23188;DHT22;11762;59.878;17.686;2022-12-20T12:19:04;2.90;99.90
23188;DHT22;11762;59.878;17.686;2022-12-20T12:21:37;2.80;99.90
23188;DHT22;11762;59.878;17.686;2022-12-20T12:24:10;2.80;99.90
23188;DHT22;11762;59.878;17.686;2022-12-20T12:26:41;2.90;99.90
23188;DHT22;11762;59.878;17.686;2022-12-20T12:29:12;2.90;99.90
23188;DHT22;11762;59.878;17.686;2022-12-20T12:31:41;2.90;99.90
23188;DHT22;11762;59.878;17.686;2022-12-20T12:34:21;2.90;99.90
23188;DHT22;11762;59.878;17.686;2022-12-20T12:37:12;2.90;99.90
23188;DHT22;11762;59.878;17.686;2022-12-20T12:40:12;2.90;99.90
23188;DHT22;11762;59.878;17.686;2022-12-20T12:43:14;3.00;99.90
23188;DHT22;11762;59.878;17.686;2022-12-20T12:45:47;3.00;99.90
23188;DHT22;11762;59.878;17.686;2022-12-20T12:48:18;2.90;99.90
23188;DHT22;11762;59.878;17.686;2022-12-20T12:50:49;3.00;99.90
23188;DHT22;11762;59.878;17.686;2022-12-20T12:53:20;3.00;99.90
23188;DHT22;11762;59.878;17.686;2022-12-20T12:55:49;3.00;99.90
23188;DHT22;11762;59.878;17.686;2022-12-20T12:58:32;3.00;99.90
23188;DHT22;11762;59.878;17.686;2022-12-20T13:01:01;3.00;99.90
23188;DHT22;11762;59.878;17.686;2022-12-20T13:04:09;3.00;99.90
23188;DHT22;11762;59.878;17.686;2022-12-20T13:06:57;3.00;99.90
23188;DHT22;11762;59.878;17.686;2022-12-20T13:09:41;3.00;99.90
23188;DHT22;11762;59.878;17.686;2022-12-20T15:49:10;4.00;99.90
23188;DHT22;11762;59.878;17.686;2022-12-20T15:51:38;4.10;99.90
23188;DHT22;11762;59.878;17.686;2022-12-20T15:54:15;4.00;99.90
23188;DHT22;11762;59.878;17.686;2022-12-20T15:56:45;4.00;99.90
23188;DHT22;11762;59.878;17.686;2022-12-20T15:59:12;3.90;99.90
23188;DHT22;11762;59.878;17.686;2022-12-20T16:01:39;3.90;99.90
23188;DHT22;11762;59.878;17.686;2022-12-20T16:04:12;4.00;99.90
23188;DHT22;11762;59.878;17.686;2022-12-20T16:06:40;4.00;99.90
23188;DHT22;11762;59.878;17.686;2022-12-20T16:09:08;4.00;99.90
23188;DHT22;11762;59.878;17.686;2022-12-20T16:11:35;4.10;99.90
23188;DHT22;11762;59.878;17.686;2022-12-20T16:14:02;4.10;99.90
23188;DHT22;11762;59.878;17.686;2022-12-20T16:16:31;4.10;99.90
23188;DHT22;11762;59.878;17.686;2022-12-20T16:18:59;4.10;99.90
23188;DHT22;11762;59.878;17.686;2022-12-20T16:21:31;4.10;99.90
23188;DHT22;11762;59.878;17.686;2022-12-20T16:23:59;4.10;99.90
23188;DHT22;11762;59.878;17.686;2022-12-20T16:26:26;4.10;99.90
23188;DHT22;11762;59.878;17.686;2022-12-20T16:28:54;4.10;99.90
23188;DHT22;11762;59.878;17.686;2022-12-20T16:31:24;4.20;99.90
23188;DHT22;11762;59.878;17.686;2022-12-20T16:33:52;4.20;99.90
23188;DHT22;11762;59.878;17.686;2022-12-20T16:36:20;4.20;99.90
23188;DHT22;11762;59.878;17.686;2022-12-20T16:38:48;4.20;99.90
23188;DHT22;11762;59.878;17.686;2022-12-20T16:41:17;4.20;99.90
23188;DHT22;11762;59.878;17.686;2022-12-20T16:43:46;4.20;99.90
23188;DHT22;11762;59.878;17.686;2022-12-20T16:46:17;4.10;99.90
23188;DHT22;11762;59.878;17.686;2022-12-20T16:48:44;4.10;99.90
23188;DHT22;11762;59.878;17.686;2022-12-20T16:51:21;4.10;99.90
23188;DHT22;11762;59.878;17.686;2022-12-20T16:53:51;4.10;99.90
23188;DHT22;11762;59.878;17.686;2022-12-20T16:56:18;4.10;99.90
23188;DHT22;11762;59.878;17.686;2022-12-20T16:58:46;4.10;99.90
23188;DHT22;11762;59.878;17.686;2022-12-20T17:01:15;4.20;99.90
23188;DHT22;11762;59.878;17.686;2022-12-20T17:03:43;4.10;99.90
23188;DHT22;11762;59.878;17.686;2022-12-20T17:06:12;4.10;99.90
23188;DHT22;11762;59.878;17.686;2022-12-20T17:08:39;4.10;99.90
23188;DHT22;11762;59.878;17.686;2022-12-20T17:11:15;4.20;99.90
23188;DHT22;11762;59.878;17.686;2022-12-20T17:13:43;4.20;99.90
23188;DHT22;11762;59.878;17.686;2022-12-20T17:16:11;4.20;99.90
23188;DHT22;11762;59.878;17.686;2022-12-20T17:18:39;4.20;99.90
23188;DHT22;11762;59.878;17.686;2022-12-20T17:21:20;4.20;99.90
23188;DHT22;11762;59.878;17.686;2022-12-20T17:23:48;4.20;99.90
23188;DHT22;11762;59.878;17.686;2022-12-20T17:26:20;4.20;99.90
23188;DHT22;11762;59.878;17.686;2022-12-20T17:28:48;4.20;99.90
23188;DHT22;11762;59.878;17.686;2022-12-20T17:31:26;4.20;99.90
23188;DHT22;11762;59.878;17.686;2022-12-20T17:33:54;4.20;99.90
23188;DHT22;11762;59.878;17.686;2022-12-20T17:36:22;4.20;99.90
23188;DHT22;11762;59.878;17.686;2022-12-20T17:38:49;4.30;99.90
23188;DHT22;11762;59.878;17.686;2022-12-20T17:41:25;4.30;99.90
23188;DHT22;11762;59.878;17.686;2022-12-20T17:43:53;4.30;99.90
23188;DHT22;11762;59.878;17.686;2022-12-20T17:46:21;4.30;99.90
23188;DHT22;11762;59.878;17.686;2022-12-20T17:48:48;4.30;99.90
23188;DHT22;11762;59.878;17.686;2022-12-20T17:51:17;4.30;99.90
23188;DHT22;11762;59.878;17.686;2022-12-20T17:53:45;4.20;99.90
23188;DHT22;11762;59.878;17.686;2022-12-20T17:56:15;4.30;99.90
23188;DHT22;11762;59.878;17.686;2022-12-20T17:58:44;4.20;99.90
23188;DHT22;11762;59.878;17.686;2022-12-20T18:01:17;4.20;99.90
23188;DHT22;11762;59.878;17.686;2022-12-20T18:03:45;4.10;99.90
23188;DHT22;11762;59.878;17.686;2022-12-20T18:06:13;4.10;99.90
23188;DHT22;11762;59.878;17.686;2022-12-20T18:08:40;4.10;99.90
23188;DHT22;11762;59.878;17.686;2022-12-20T18:11:08;4.10;99.90
23188;DHT22;11762;59.878;17.686;2022-12-20T18:13:35;4.20;99.90
23188;DHT22;11762;59.878;17.686;2022-12-20T18:16:07;4.20;99.90
23188;DHT22;11762;59.878;17.686;2022-12-20T18:18:34;4.20;99.90
23188;DHT22;11762;59.878;17.686;2022-12-20T18:21:02;4.20;99.90
23188;DHT22;11762;59.878;17.686;2022-12-20T18:23:30;4.20;99.90
23188;DHT22;11762;59.878;17.686;2022-12-20T18:26:08;4.20;99.90
23188;DHT22;11762;59.878;17.686;2022-12-20T18:28:38;4.30;99.90
23188;DHT22;11762;59.878;17.686;2022-12-20T18:31:07;4.30;99.90
23188;DHT22;11762;59.878;17.686;2022-12-20T18:33:35;4.30;99.90